Time;durP1;ratioP1;P1;durP2;ratioP2;P2;SDS_P1;SDS_P2;PMS_P1;PMS_P2;Temp;Humidity;BMP_temperature;BMP_pressure;BME280_temperature;BME280_humidity;BME280_pressure;Samples;Min_cycle;Max_cycle;Signal;HPM_P1;HPM_P2
2021/07/02 00:01:38;;;;;;;23.25;10.98;;;15.80;93.10;;;;;;5074731;28;20028;-79
2021/07/02 00:04:05;;;;;;;19.98;9.77;;;15.70;93.00;;;;;;5074625;28;20032;-80
2021/07/02 00:06:31;;;;;;;23.80;10.82;;;15.80;93.10;;;;;;5056859;28;20028;-80
2021/07/02 00:08:56;;;;;;;19.48;10.20;;;15.70;93.10;;;;;;5072914;28;20114;-79
2021/07/02 00:11:22;;;;;;;20.05;10.70;;;15.70;93.10;;;;;;5056616;28;20380;-80
2021/07/02 00:13:48;;;;;;;20.08;10.63;;;15.70;93.10;;;;;;5073793;28;20532;-79
2021/07/02 00:16:13;;;;;;;20.83;10.23;;;15.80;93.20;;;;;;5074370;28;20028;-79
2021/07/02 00:18:39;;;;;;;19.70;9.68;;;15.70;93.10;;;;;;5073054;28;20487;-79
2021/07/02 00:21:05;;;;;;;19.38;10.65;;;15.70;93.10;;;;;;5073148;28;20044;-80
2021/07/02 00:23:30;;;;;;;17.70;10.05;;;15.70;93.20;;;;;;5074112;28;20067;-80
2021/07/02 00:25:56;;;;;;;18.90;10.50;;;15.80;93.20;;;;;;5072740;28;20053;-79
2021/07/02 00:28:22;;;;;;;17.25;9.60;;;15.70;93.10;;;;;;5073235;28;20029;-79
2021/07/02 00:30:49;;;;;;;18.63;11.25;;;15.70;93.10;;;;;;5073137;28;20111;-80
2021/07/02 00:33:14;;;;;;;18.45;10.15;;;15.70;93.10;;;;;;5074154;28;20056;-81
2021/07/02 00:35:41;;;;;;;20.27;11.07;;;15.70;93.20;;;;;;5076268;28;20388;-79
2021/07/02 00:38:07;;;;;;;18.00;10.10;;;15.70;93.20;;;;;;5081129;28;20541;-79
2021/07/02 00:40:33;;;;;;;19.48;9.50;;;15.60;93.20;;;;;;5086099;28;20021;-81
2021/07/02 00:42:59;;;;;;;19.33;10.10;;;15.60;93.20;;;;;;5084517;28;20083;-80
2021/07/02 00:45:25;;;;;;;17.30;8.60;;;15.60;93.20;;;;;;5085076;28;20060;-79
2021/07/02 00:47:51;;;;;;;18.15;10.00;;;15.60;93.20;;;;;;5077561;28;20538;-79
2021/07/02 00:50:17;;;;;;;18.85;10.40;;;15.60;93.20;;;;;;5073919;28;20522;-79
2021/07/02 00:52:43;;;;;;;20.65;10.25;;;15.60;93.20;;;;;;5073872;28;20035;-80
2021/07/02 00:55:10;;;;;;;16.73;9.85;;;15.60;93.20;;;;;;5072664;28;20029;-81
2021/07/02 00:57:36;;;;;;;21.38;11.30;;;15.70;93.20;;;;;;5072421;28;20025;-80
2021/07/02 01:00:06;;;;;;;18.10;10.32;;;15.60;93.20;;;;;;5055749;28;20114;-79
2021/07/02 01:02:33;;;;;;;20.80;10.55;;;15.60;93.20;;;;;;5073602;28;20040;-79
2021/07/02 01:04:58;;;;;;;22.70;10.40;;;15.60;93.20;;;;;;5072252;28;20040;-79
2021/07/02 01:07:24;;;;;;;22.35;11.00;;;15.60;93.20;;;;;;5055719;28;20029;-79
2021/07/02 01:09:50;;;;;;;20.67;10.57;;;15.60;93.20;;;;;;5073689;28;20433;-78
2021/07/02 01:12:16;;;;;;;19.77;11.18;;;15.60;93.20;;;;;;5073627;28;20029;-79
2021/07/02 01:14:42;;;;;;;16.20;9.23;;;15.60;93.20;;;;;;5055490;28;20029;-78
2021/07/02 01:17:07;;;;;;;23.08;11.52;;;15.60;93.30;;;;;;5056510;28;20025;-79
2021/07/02 01:19:33;;;;;;;18.98;10.48;;;15.60;93.30;;;;;;5055089;28;20032;-79
2021/07/02 01:21:59;;;;;;;18.58;11.40;;;15.50;93.30;;;;;;5055082;28;20063;-78
2021/07/02 01:24:25;;;;;;;18.42;10.73;;;15.60;93.30;;;;;;5073526;28;20059;-78
2021/07/02 01:26:51;;;;;;;23.35;12.02;;;15.60;93.30;;;;;;5055542;28;20056;-79
2021/07/02 01:29:19;;;;;;;20.85;11.40;;;15.50;93.30;;;;;;5073543;28;20051;-80
2021/07/02 01:31:45;;;;;;;21.52;11.27;;;15.50;93.20;;;;;;5073343;28;20120;-78
2021/07/02 01:34:10;;;;;;;19.38;12.05;;;15.50;93.20;;;;;;5073224;28;20173;-78
2021/07/02 01:36:36;;;;;;;19.95;11.13;;;15.50;93.20;;;;;;5073966;28;20028;-79
2021/07/02 01:39:03;;;;;;;23.83;12.55;;;15.50;93.50;;;;;;5072546;28;20028;-78
2021/07/02 01:41:29;;;;;;;24.73;11.02;;;15.40;93.50;;;;;;5072572;28;20043;-78
2021/07/02 01:43:55;;;;;;;17.55;11.10;;;15.40;93.20;;;;;;5055531;28;20024;-79
2021/07/02 01:46:20;;;;;;;19.80;11.60;;;15.40;93.20;;;;;;5055282;28;20028;-80
2021/07/02 01:48:46;;;;;;;16.23;9.65;;;15.40;93.20;;;;;;5072016;28;20484;-80
2021/07/02 01:51:12;;;;;;;17.83;10.48;;;15.40;93.20;;;;;;5073672;28;20358;-78
2021/07/02 01:53:38;;;;;;;24.83;12.27;;;15.30;93.10;;;;;;5071980;28;20495;-78
2021/07/02 01:56:05;;;;;;;24.40;11.23;;;15.30;93.10;;;;;;5072024;28;20167;-78
2021/07/02 01:58:30;;;;;;;24.27;11.38;;;15.30;93.10;;;;;;5071986;28;20063;-79
2021/07/02 02:00:56;;;;;;;20.77;10.40;;;15.30;93.10;;;;;;5055196;28;20059;-78
2021/07/02 02:03:22;;;;;;;20.15;11.98;;;15.30;93.40;;;;;;5071927;28;20033;-79
2021/07/02 02:05:48;;;;;;;19.88;10.93;;;15.30;93.10;;;;;;5073135;28;20036;-78
2021/07/02 02:08:14;;;;;;;22.67;12.13;;;15.20;93.10;;;;;;5055263;28;20056;-78
2021/07/02 02:10:40;;;;;;;23.55;12.38;;;15.20;93.10;;;;;;5071644;28;20081;-79
2021/07/02 02:13:05;;;;;;;17.48;10.82;;;15.20;93.10;;;;;;5071490;28;20120;-79
2021/07/02 02:15:31;;;;;;;21.73;11.63;;;15.20;93.10;;;;;;5071708;28;20028;-79
2021/07/02 02:17:57;;;;;;;21.02;10.50;;;15.20;93.10;;;;;;5072794;28;20029;-78
2021/07/02 02:20:23;;;;;;;18.40;10.63;;;15.20;93.10;;;;;;5055047;28;20052;-78
2021/07/02 02:22:48;;;;;;;18.80;10.43;;;15.20;93.00;;;;;;5072956;28;20029;-78
2021/07/02 02:25:14;;;;;;;23.33;11.70;;;15.10;93.30;;;;;;5071895;28;20076;-78
2021/07/02 02:27:40;;;;;;;22.38;12.13;;;15.10;93.00;;;;;;5071831;28;20527;-78
2021/07/02 02:30:07;;;;;;;22.75;10.63;;;15.10;93.00;;;;;;5071797;28;20028;-78
2021/07/02 02:32:33;;;;;;;20.10;10.27;;;15.10;93.00;;;;;;5075649;28;20051;-78
2021/07/02 02:34:58;;;;;;;17.98;10.70;;;15.00;93.00;;;;;;5076704;28;20029;-78
2021/07/02 02:37:24;;;;;;;20.67;10.63;;;15.00;93.00;;;;;;5075379;28;20040;-78
2021/07/02 02:39:49;;;;;;;19.83;10.90;;;15.00;93.00;;;;;;5058497;28;20033;-78
2021/07/02 02:42:15;;;;;;;17.05;10.48;;;14.90;93.10;;;;;;5076259;28;20067;-79
2021/07/02 02:44:41;;;;;;;22.98;11.50;;;14.90;93.10;;;;;;5075144;28;20037;-79
2021/07/02 02:47:06;;;;;;;19.77;11.93;;;14.90;93.10;;;;;;5076430;28;20044;-79
2021/07/02 02:49:32;;;;;;;23.33;11.20;;;14.90;93.10;;;;;;5075990;28;20465;-80
2021/07/02 02:51:58;;;;;;;20.85;11.30;;;14.80;93.10;;;;;;5076451;28;20392;-78
2021/07/02 02:54:23;;;;;;;22.58;12.02;;;14.80;93.20;;;;;;5075348;28;20063;-78
2021/07/02 02:57:04;;;;;;;24.40;12.10;;;14.80;93.20;;;;;;5074857;28;20043;-79
2021/07/02 02:59:31;;;;;;;29.25;12.48;;;14.80;93.20;;;;;;5074966;28;20033;-79
2021/07/02 03:01:57;;;;;;;25.02;12.32;;;14.80;93.30;;;;;;5074672;28;20490;-79
2021/07/02 03:04:23;;;;;;;22.73;12.57;;;14.70;93.20;;;;;;5074533;28;20040;-79
2021/07/02 03:06:49;;;;;;;23.92;13.27;;;14.70;93.30;;;;;;5076005;28;20111;-78
2021/07/02 03:09:15;;;;;;;22.13;12.63;;;14.70;93.30;;;;;;5075924;28;20032;-79
2021/07/02 03:11:43;;;;;;;20.63;10.88;;;14.70;93.40;;;;;;5074674;28;20028;-79
2021/07/02 03:14:09;;;;;;;25.20;11.88;;;14.70;93.40;;;;;;5074455;28;20048;-79
2021/07/02 03:16:35;;;;;;;23.33;12.40;;;14.70;93.40;;;;;;5058199;28;20128;-78
2021/07/02 03:19:00;;;;;;;26.80;12.25;;;14.70;93.50;;;;;;5057903;28;20468;-79
2021/07/02 03:21:26;;;;;;;25.95;12.95;;;14.70;93.40;;;;;;5074777;28;20033;-79
2021/07/02 03:23:52;;;;;;;25.17;13.50;;;14.70;93.50;;;;;;5057731;28;20446;-79
2021/07/02 03:26:17;;;;;;;22.67;13.45;;;14.70;93.50;;;;;;5057670;28;20102;-78
2021/07/02 03:28:44;;;;;;;19.77;12.15;;;14.70;93.50;;;;;;5057560;28;20032;-78
2021/07/02 03:31:09;;;;;;;21.10;13.07;;;14.70;93.90;;;;;;5074593;28;20024;-78
2021/07/02 03:33:35;;;;;;;19.10;11.55;;;14.70;93.60;;;;;;5075564;28;20499;-78
2021/07/02 03:36:01;;;;;;;22.95;12.52;;;14.80;93.70;;;;;;5074548;28;20032;-78
2021/07/02 03:38:26;;;;;;;22.77;12.55;;;14.80;93.70;;;;;;5075441;28;20043;-78
2021/07/02 03:40:52;;;;;;;21.33;12.32;;;14.80;93.70;;;;;;5074440;28;20025;-80
2021/07/02 03:43:18;;;;;;;23.00;12.25;;;14.80;93.70;;;;;;5073609;28;20077;-78
2021/07/02 03:45:44;;;;;;;22.63;12.40;;;14.80;93.70;;;;;;5073990;28;20027;-79
2021/07/02 03:48:10;;;;;;;25.50;13.20;;;14.80;93.70;;;;;;5074440;28;20032;-78
2021/07/02 03:50:36;;;;;;;21.42;12.23;;;14.70;93.70;;;;;;5073943;28;20101;-78
2021/07/02 03:53:01;;;;;;;22.45;12.70;;;14.80;93.80;;;;;;5073874;28;20036;-78
2021/07/02 03:55:27;;;;;;;23.45;12.35;;;14.80;93.80;;;;;;5074891;28;20028;-78
2021/07/02 03:57:53;;;;;;;21.20;11.90;;;14.80;93.80;;;;;;5056040;28;20025;-78
2021/07/02 04:00:18;;;;;;;22.17;12.77;;;14.80;93.80;;;;;;5082434;28;20127;-79
2021/07/02 04:02:45;;;;;;;26.08;13.52;;;14.70;93.70;;;;;;5074762;28;20036;-79
2021/07/02 04:05:11;;;;;;;26.88;13.70;;;14.70;93.70;;;;;;5073736;28;20039;-80
2021/07/02 04:07:37;;;;;;;26.45;14.27;;;14.80;93.70;;;;;;5073611;28;20052;-79
2021/07/02 04:10:03;;;;;;;22.10;12.88;;;14.70;93.60;;;;;;5056492;28;20460;-79
2021/07/02 04:12:29;;;;;;;30.50;14.73;;;14.80;93.70;;;;;;5073165;28;20071;-78
2021/07/02 04:14:54;;;;;;;26.45;14.20;;;14.70;93.70;;;;;;5056497;28;20418;-80
2021/07/02 04:17:20;;;;;;;27.80;14.70;;;14.80;93.60;;;;;;5073546;28;20040;-78
2021/07/02 04:19:46;;;;;;;25.33;14.23;;;14.80;93.60;;;;;;5056359;28;20033;-78
2021/07/02 04:22:11;;;;;;;24.48;13.77;;;14.70;93.60;;;;;;5073477;28;20384;-78
2021/07/02 04:24:37;;;;;;;26.70;14.35;;;14.70;93.60;;;;;;5072973;28;20043;-78
2021/07/02 04:27:03;;;;;;;24.60;13.40;;;14.70;93.50;;;;;;5072755;28;20053;-79
2021/07/02 04:29:29;;;;;;;24.95;14.27;;;14.70;93.60;;;;;;5073018;28;20035;-79
2021/07/02 04:31:54;;;;;;;27.33;15.70;;;14.70;93.60;;;;;;5073179;28;20033;-78
2021/07/02 04:34:20;;;;;;;28.13;14.77;;;14.70;93.60;;;;;;5073070;28;20024;-78
2021/07/02 04:36:46;;;;;;;26.42;15.52;;;14.70;93.60;;;;;;5056862;28;20056;-79
2021/07/02 04:39:12;;;;;;;29.60;15.02;;;14.70;93.60;;;;;;5072808;28;20029;-78
2021/07/02 04:41:38;;;;;;;25.80;13.80;;;14.70;93.60;;;;;;5056142;28;20032;-79
2021/07/02 04:44:04;;;;;;;27.70;14.77;;;14.70;93.60;;;;;;5074282;28;20036;-78
2021/07/02 04:46:30;;;;;;;22.80;14.93;;;14.70;93.80;;;;;;5073907;28;20399;-79
2021/07/02 04:48:55;;;;;;;24.67;14.07;;;14.70;93.60;;;;;;5072923;28;20111;-78
2021/07/02 04:51:21;;;;;;;29.50;14.73;;;14.60;93.50;;;;;;5072947;28;20032;-78
2021/07/02 04:53:47;;;;;;;26.23;15.38;;;14.60;93.60;;;;;;5072772;28;20028;-78
2021/07/02 04:56:13;;;;;;;25.42;15.10;;;14.60;93.60;;;;;;5070884;28;20452;-78
2021/07/02 04:58:41;;;;;;;24.25;15.18;;;14.60;93.70;;;;;;5072668;28;20024;-78
2021/07/02 05:01:07;;;;;;;28.67;16.02;;;14.60;94.10;;;;;;5072236;28;20028;-78
2021/07/02 05:03:32;;;;;;;26.50;14.85;;;14.70;93.90;;;;;;5055671;28;20450;-78
2021/07/02 05:06:00;;;;;;;24.85;14.23;;;14.80;93.90;;;;;;5055803;28;20155;-79
2021/07/02 05:08:26;;;;;;;27.27;14.23;;;14.80;93.80;;;;;;5072616;28;20463;-78
2021/07/02 05:10:51;;;;;;;25.45;14.68;;;14.80;93.80;;;;;;5073536;28;20020;-78
2021/07/02 05:13:17;;;;;;;24.35;15.23;;;14.80;94.00;;;;;;5055561;28;20078;-78
2021/07/02 05:15:43;;;;;;;25.40;15.88;;;14.80;93.60;;;;;;5072332;28;20035;-78
2021/07/02 05:18:08;;;;;;;24.65;15.23;;;14.80;93.60;;;;;;5072393;28;20119;-78
2021/07/02 05:20:34;;;;;;;26.08;14.57;;;14.80;93.60;;;;;;5072076;28;20024;-79
2021/07/02 05:22:59;;;;;;;24.80;14.93;;;14.70;93.50;;;;;;5072349;28;20043;-78
2021/07/02 05:25:25;;;;;;;24.98;14.60;;;14.80;93.60;;;;;;5072223;28;20102;-78
2021/07/02 05:27:51;;;;;;;31.35;16.00;;;14.80;93.60;;;;;;5055700;28;20442;-79
2021/07/02 05:30:17;;;;;;;28.13;16.60;;;14.70;93.50;;;;;;5072045;28;20025;-79
2021/07/02 05:32:43;;;;;;;25.77;15.38;;;14.70;93.50;;;;;;5071878;28;20035;-78
2021/07/02 05:35:09;;;;;;;24.33;15.68;;;14.70;93.60;;;;;;5055854;28;20029;-79
2021/07/02 05:37:39;;;;;;;27.02;14.90;;;14.70;93.60;;;;;;5073227;28;20095;-78
2021/07/02 05:40:06;;;;;;;26.00;15.88;;;14.70;93.70;;;;;;5072151;28;20058;-79
2021/07/02 05:42:31;;;;;;;31.25;17.27;;;14.70;93.70;;;;;;5071258;28;20039;-78
2021/07/02 05:44:57;;;;;;;31.35;17.38;;;14.70;93.70;;;;;;5071338;28;20365;-78
2021/07/02 05:47:24;;;;;;;25.50;15.82;;;14.70;93.70;;;;;;5071553;28;20511;-78
2021/07/02 05:49:49;;;;;;;28.30;16.73;;;14.70;93.70;;;;;;5054995;28;20097;-78
2021/07/02 05:52:15;;;;;;;29.48;15.52;;;14.80;93.80;;;;;;5055092;28;20434;-78
2021/07/02 05:54:45;;;;;;;25.83;16.23;;;14.80;93.80;;;;;;5053819;28;20021;-78
2021/07/02 05:57:10;;;;;;;23.83;15.57;;;14.80;93.80;;;;;;5056278;28;20111;-78
2021/07/02 05:59:36;;;;;;;28.45;16.77;;;14.80;93.80;;;;;;5055021;28;20115;-78
2021/07/02 06:02:02;;;;;;;24.40;14.90;;;14.90;93.80;;;;;;5055142;28;20025;-78
2021/07/02 06:04:27;;;;;;;27.92;14.90;;;14.80;93.80;;;;;;5073132;28;20043;-78
2021/07/02 06:06:53;;;;;;;25.83;15.85;;;14.90;93.70;;;;;;5073529;28;20028;-78
2021/07/02 06:09:18;;;;;;;23.23;14.30;;;14.90;93.70;;;;;;5076054;28;20342;-77
2021/07/02 06:11:44;;;;;;;24.23;13.15;;;15.00;93.70;;;;;;5058945;28;20036;-79
2021/07/02 06:14:10;;;;;;;25.10;15.23;;;15.00;93.70;;;;;;5075310;28;20021;-77
2021/07/02 06:16:35;;;;;;;25.80;15.52;;;15.00;93.70;;;;;;5075234;28;20036;-77
2021/07/02 06:19:01;;;;;;;31.05;16.20;;;15.10;93.70;;;;;;5075417;28;20111;-78
2021/07/02 06:21:28;;;;;;;21.55;14.23;;;15.10;93.70;;;;;;5076582;28;20024;-77
2021/07/02 06:23:53;;;;;;;25.75;14.63;;;15.20;93.60;;;;;;5075517;28;20025;-78
2021/07/02 06:26:19;;;;;;;24.15;15.32;;;15.20;93.50;;;;;;5074924;28;20563;-78
2021/07/02 06:28:44;;;;;;;21.35;14.45;;;15.30;93.40;;;;;;5058198;28;20036;-78
2021/07/02 06:31:10;;;;;;;27.42;15.18;;;15.30;93.30;;;;;;5058448;28;20035;-80
2021/07/02 06:33:36;;;;;;;23.92;13.98;;;15.40;93.20;;;;;;5042233;28;20029;-80
2021/07/02 06:36:02;;;;;;;26.95;13.18;;;15.40;93.20;;;;;;5058660;28;20031;-78
2021/07/02 06:38:28;;;;;;;23.98;13.95;;;15.50;93.10;;;;;;5076581;28;20418;-76
2021/07/02 06:40:54;;;;;;;25.27;13.85;;;15.60;93.00;;;;;;5075345;28;20036;-76
2021/07/02 06:43:20;;;;;;;27.23;13.77;;;15.70;93.10;;;;;;5076733;28;20056;-77
2021/07/02 06:45:45;;;;;;;23.75;12.90;;;15.60;93.10;;;;;;5075139;28;20024;-78
2021/07/02 06:48:11;;;;;;;21.95;13.18;;;15.60;93.10;;;;;;5074895;28;20020;-77
2021/07/02 06:50:39;;;;;;;22.52;12.50;;;15.60;93.00;;;;;;5058328;28;20102;-77
2021/07/02 06:53:06;;;;;;;23.90;13.52;;;15.70;93.00;;;;;;5075887;28;20029;-79
2021/07/02 06:55:33;;;;;;;20.25;11.60;;;15.70;93.00;;;;;;5073650;28;20119;-80
2021/07/02 06:57:58;;;;;;;21.00;12.07;;;15.70;92.90;;;;;;5057659;28;20021;-79
2021/07/02 07:00:25;;;;;;;24.70;13.85;;;15.80;92.90;;;;;;5074352;28;20029;-78
2021/07/02 07:02:51;;;;;;;19.80;12.00;;;15.80;92.90;;;;;;5074654;28;20039;-80
2021/07/02 07:05:18;;;;;;;21.70;12.65;;;15.80;92.80;;;;;;5057990;28;20427;-78
2021/07/02 07:07:44;;;;;;;22.55;12.98;;;15.90;92.70;;;;;;5058052;28;20075;-78
2021/07/02 07:10:11;;;;;;;19.50;12.15;;;15.90;92.70;;;;;;5057633;28;20391;-79
2021/07/02 07:12:37;;;;;;;21.83;12.80;;;16.00;92.70;;;;;;5074397;28;20027;-81
2021/07/02 07:15:04;;;;;;;24.58;13.10;;;16.10;92.60;;;;;;5074498;28;20012;-77
2021/07/02 07:17:31;;;;;;;21.58;13.45;;;16.20;92.60;;;;;;5075206;28;20025;-80
2021/07/02 07:19:57;;;;;;;17.65;11.52;;;16.30;92.50;;;;;;5075163;28;20028;-80
2021/07/02 07:22:23;;;;;;;23.48;13.05;;;16.40;92.40;;;;;;5075643;28;20502;-77
2021/07/02 07:24:48;;;;;;;21.42;12.52;;;16.50;92.20;;;;;;5075621;28;20499;-77
2021/07/02 07:27:14;;;;;;;19.10;11.80;;;16.60;92.10;;;;;;5075152;28;20052;-78
2021/07/02 07:29:40;;;;;;;21.73;12.20;;;16.70;92.10;;;;;;5073803;28;20107;-80
2021/07/02 07:32:06;;;;;;;18.88;12.10;;;16.80;92.00;;;;;;5073894;28;20419;-81
2021/07/02 07:37:07;;;;;;;22.65;12.55;;;17.00;91.70;;;;;;5074408;28;20032;-78
2021/07/02 07:39:32;;;;;;;17.98;13.00;;;17.10;91.60;;;;;;5073845;28;20063;-79
2021/07/02 07:41:58;;;;;;;21.30;13.45;;;17.10;91.60;;;;;;5075199;28;20060;-80
2021/07/02 07:44:24;;;;;;;21.48;11.32;;;17.20;91.50;;;;;;5074159;28;20033;-78
2021/07/02 07:46:49;;;;;;;20.55;12.90;;;17.30;91.40;;;;;;5057245;28;20095;-80
2021/07/02 07:49:15;;;;;;;20.58;12.27;;;17.40;91.20;;;;;;5057204;28;20028;-78
2021/07/02 07:54:29;;;;;;;17.95;11.35;;;17.50;91.40;;;;;;5046513;28;20078;-80
2021/07/02 07:56:55;;;;;;;20.63;11.98;;;17.70;91.10;;;;;;5073866;28;20380;-80
2021/07/02 07:59:25;;;;;;;18.23;11.10;;;17.80;90.80;;;;;;5075263;28;20041;-81
2021/07/02 08:01:51;;;;;;;17.15;11.02;;;17.80;90.60;;;;;;5074890;28;20175;-78
2021/07/02 08:04:17;;;;;;;16.58;9.50;;;17.90;90.30;;;;;;5073824;28;20091;-79
2021/07/02 08:06:44;;;;;;;20.98;11.20;;;17.90;90.20;;;;;;5074730;28;20512;-78
2021/07/02 08:09:11;;;;;;;16.67;10.77;;;17.90;90.10;;;;;;5073348;28;20396;-78
2021/07/02 08:11:37;;;;;;;16.17;10.18;;;18.00;90.20;;;;;;5073459;28;20028;-78
2021/07/02 08:14:03;;;;;;;17.67;10.25;;;18.10;90.00;;;;;;5073791;28;20024;-79
2021/07/02 08:16:29;;;;;;;15.93;10.48;;;18.10;89.80;;;;;;5073461;28;20115;-79
2021/07/02 08:18:54;;;;;;;15.50;10.20;;;18.10;89.40;;;;;;5073337;28;20064;-78
2021/07/02 08:21:20;;;;;;;16.85;11.32;;;18.20;89.10;;;;;;5056592;28;20025;-81
2021/07/02 08:23:46;;;;;;;15.98;10.68;;;18.20;88.80;;;;;;5073222;28;20078;-78
2021/07/02 08:26:12;;;;;;;14.55;10.32;;;18.30;88.60;;;;;;5073044;28;20083;-79
2021/07/02 08:31:22;;;;;;;15.73;11.30;;;18.40;88.20;;;;;;5073336;28;20086;-77
2021/07/02 08:33:48;;;;;;;17.42;11.90;;;18.40;88.00;;;;;;5073441;28;20028;-80
2021/07/02 08:36:14;;;;;;;16.75;11.18;;;18.40;88.50;;;;;;5056238;28;20037;-77
2021/07/02 08:38:39;;;;;;;19.33;11.95;;;18.50;88.00;;;;;;5073154;28;20475;-78
2021/07/02 08:41:07;;;;;;;20.02;12.48;;;18.50;87.90;;;;;;5074494;28;20472;-77
2021/07/02 08:43:33;;;;;;;21.65;13.80;;;18.60;87.80;;;;;;5073009;28;20036;-78
2021/07/02 08:45:58;;;;;;;19.98;12.20;;;18.60;87.50;;;;;;5073926;28;20032;-79
2021/07/02 08:48:26;;;;;;;18.23;13.27;;;18.70;87.30;;;;;;5072925;28;20468;-81
2021/07/02 08:50:53;;;;;;;22.00;13.40;;;18.80;87.00;;;;;;5056195;28;20033;-77
2021/07/02 08:53:18;;;;;;;18.92;13.40;;;18.80;86.80;;;;;;5073904;28;20025;-77
2021/07/02 08:55:44;;;;;;;21.00;13.77;;;18.90;86.70;;;;;;5073879;28;20383;-78
2021/07/02 08:58:14;;;;;;;19.02;12.80;;;19.00;86.30;;;;;;5073079;28;20028;-78
2021/07/02 09:00:44;;;;;;;16.33;11.60;;;19.00;86.10;;;;;;5055860;28;20484;-78
2021/07/02 09:03:28;;;;;;;20.52;12.45;;;19.10;85.90;;;;;;5072871;28;20142;-78
2021/07/02 09:05:55;;;;;;;18.65;12.27;;;19.20;85.70;;;;;;5072506;28;20117;-77
2021/07/02 09:08:22;;;;;;;16.95;11.90;;;19.20;85.70;;;;;;5073857;28;20029;-77
2021/07/02 09:10:48;;;;;;;17.73;10.88;;;19.30;85.60;;;;;;5072490;28;20166;-78
2021/07/02 09:13:15;;;;;;;18.83;10.85;;;19.40;85.30;;;;;;5055828;28;20060;-79
2021/07/02 09:15:48;;;;;;;14.02;10.07;;;19.40;84.80;;;;;;5055911;28;20028;-77
2021/07/02 09:18:16;;;;;;;12.80;8.52;;;19.50;84.70;;;;;;5073966;28;20065;-78
2021/07/02 09:20:44;;;;;;;13.88;10.07;;;19.50;84.60;;;;;;5072268;28;20119;-77
2021/07/02 09:23:12;;;;;;;19.17;10.35;;;19.60;84.50;;;;;;5073476;28;20033;-78
2021/07/02 09:25:37;;;;;;;13.32;8.95;;;19.70;84.50;;;;;;5071763;28;20052;-78
2021/07/02 09:28:06;;;;;;;14.02;9.00;;;19.70;84.30;;;;;;5072019;28;20489;-78
2021/07/02 09:30:34;;;;;;;17.50;11.85;;;19.80;84.10;;;;;;5073210;28;20041;-77
2021/07/02 09:33:05;;;;;;;17.55;12.60;;;19.80;83.80;;;;;;5073485;28;20082;-78
2021/07/02 09:35:35;;;;;;;18.67;12.35;;;19.90;83.70;;;;;;5072093;28;20017;-79
2021/07/02 09:38:02;;;;;;;17.88;11.75;;;20.10;83.50;;;;;;5073501;28;20096;-76
2021/07/02 09:40:31;;;;;;;17.33;11.60;;;20.10;83.40;;;;;;5072302;28;20033;-78
2021/07/02 09:43:05;;;;;;;22.95;12.88;;;20.30;83.00;;;;;;5075911;28;20518;-78
2021/07/02 09:45:33;;;;;;;20.08;14.00;;;20.40;82.70;;;;;;5077626;28;20055;-76
2021/07/02 09:48:09;;;;;;;20.77;14.32;;;20.40;82.30;;;;;;5077231;28;20480;-77
2021/07/02 09:50:42;;;;;;;22.40;13.68;;;20.40;82.10;;;;;;5077174;28;20031;-77
2021/07/02 09:53:11;;;;;;;21.63;14.63;;;20.30;81.90;;;;;;5077087;28;20090;-78
2021/07/02 09:55:46;;;;;;;23.33;14.48;;;20.40;81.50;;;;;;5075735;28;20016;-76
2021/07/02 09:58:11;;;;;;;23.80;15.25;;;20.40;81.50;;;;;;5075775;28;20027;-79
2021/07/02 10:00:49;;;;;;;22.42;16.50;;;20.40;81.20;;;;;;5077265;28;20028;-78
2021/07/02 10:03:16;;;;;;;19.77;14.32;;;20.30;81.10;;;;;;5077042;28;20028;-77
2021/07/02 10:05:56;;;;;;;19.73;14.60;;;20.30;81.10;;;;;;5076131;28;20056;-77
2021/07/02 10:08:25;;;;;;;21.23;14.10;;;20.30;81.00;;;;;;5075767;28;20411;-79
2021/07/02 10:10:52;;;;;;;22.77;15.10;;;20.30;81.00;;;;;;5076987;28;20116;-78
2021/07/02 10:13:21;;;;;;;23.02;14.10;;;20.20;80.80;;;;;;5076999;28;20074;-77
2021/07/02 10:15:47;;;;;;;23.58;14.68;;;20.10;80.70;;;;;;5075898;28;20051;-77
2021/07/02 10:18:15;;;;;;;22.35;14.55;;;20.10;80.80;;;;;;5075481;28;20049;-77
2021/07/02 10:20:43;;;;;;;25.00;14.48;;;20.10;81.00;;;;;;5077052;28;20024;-77
2021/07/02 10:23:11;;;;;;;20.67;14.57;;;20.00;81.00;;;;;;5059204;28;20028;-78
2021/07/02 10:25:40;;;;;;;20.65;14.60;;;20.10;81.00;;;;;;5076535;28;20576;-78
2021/07/02 10:28:06;;;;;;;22.67;15.65;;;20.10;81.00;;;;;;5076655;28;20032;-77
2021/07/02 10:30:32;;;;;;;21.48;14.00;;;20.00;80.70;;;;;;5076611;28;20039;-77
2021/07/02 10:32:59;;;;;;;23.90;15.55;;;20.00;81.10;;;;;;5075700;28;20467;-77
2021/07/02 10:35:29;;;;;;;21.33;15.10;;;20.00;81.40;;;;;;5058373;28;20035;-77
2021/07/02 10:37:57;;;;;;;18.38;13.63;;;20.10;81.40;;;;;;5075032;28;20028;-76
2021/07/02 10:40:33;;;;;;;23.23;15.07;;;20.10;81.30;;;;;;5058461;28;20029;-76
2021/07/02 10:43:20;;;;;;;20.55;13.27;;;20.20;81.20;;;;;;5075100;28;20047;-78
2021/07/02 10:46:07;;;;;;;20.75;13.68;;;20.20;81.20;;;;;;5076273;28;20040;-76
2021/07/02 10:48:47;;;;;;;19.02;12.70;;;20.20;81.10;;;;;;5076338;28;20039;-78
2021/07/02 10:51:31;;;;;;;24.30;14.32;;;20.30;81.30;;;;;;5074730;28;20130;-78
2021/07/02 10:54:09;;;;;;;20.33;13.07;;;20.30;81.30;;;;;;5075931;28;20020;-79
2021/07/02 10:56:37;;;;;;;17.30;12.98;;;20.30;81.50;;;;;;5076143;28;20057;-76
2021/07/02 10:59:03;;;;;;;16.52;11.90;;;20.30;81.50;;;;;;5058372;28;20031;-76
2021/07/02 11:01:31;;;;;;;20.00;14.18;;;20.30;81.50;;;;;;5075181;28;20033;-79
2021/07/02 11:04:32;;;;;;;19.58;14.07;;;20.30;81.40;;;;;;5058664;28;20025;-77
2021/07/02 11:06:57;;;;;;;18.45;12.30;;;20.30;81.20;;;;;;5075764;28;20024;-79
2021/07/02 11:12:25;;;;;;;21.08;13.25;;;20.40;81.00;;;;;;5075738;28;20035;-77
2021/07/02 11:15:06;;;;;;;16.75;13.00;;;20.40;81.10;;;;;;5076195;28;20025;-78
2021/07/02 11:17:38;;;;;;;18.80;13.52;;;20.40;80.80;;;;;;5075517;28;20024;-77
2021/07/02 11:20:07;;;;;;;19.70;12.23;;;20.50;80.70;;;;;;5074236;28;20048;-78
2021/07/02 11:22:45;;;;;;;20.42;12.43;;;20.50;80.60;;;;;;5074678;28;20028;-77
2021/07/02 11:25:26;;;;;;;16.60;11.63;;;20.50;80.30;;;;;;5074417;28;20024;-77
2021/07/02 11:28:01;;;;;;;17.10;12.30;;;20.50;80.20;;;;;;5074852;28;20044;-77
2021/07/02 11:33:00;;;;;;;19.95;12.70;;;20.60;80.00;;;;;;5075612;28;20025;-78
2021/07/02 11:35:29;;;;;;;17.73;11.55;;;20.50;79.90;;;;;;5057789;28;20055;-78
2021/07/02 11:38:05;;;;;;;19.48;12.77;;;20.40;79.90;;;;;;5075240;28;20056;-76
2021/07/02 11:40:33;;;;;;;18.23;11.95;;;20.30;79.90;;;;;;5075390;28;20026;-77
2021/07/02 11:43:00;;;;;;;15.07;10.65;;;20.20;80.30;;;;;;5075457;28;20055;-77
2021/07/02 11:45:46;;;;;;;16.35;10.18;;;20.20;80.60;;;;;;5075425;28;20048;-78
2021/07/02 11:48:23;;;;;;;14.38;10.02;;;20.20;80.90;;;;;;5075480;28;20486;-78
2021/07/02 11:51:00;;;;;;;16.60;10.75;;;20.10;81.00;;;;;;5073695;28;20115;-78
2021/07/02 11:53:27;;;;;;;15.00;9.82;;;20.10;81.50;;;;;;5075133;28;20035;-78
2021/07/02 11:56:09;;;;;;;15.02;9.60;;;20.10;81.70;;;;;;5074923;28;20028;-77
2021/07/02 11:58:39;;;;;;;15.90;9.38;;;20.10;82.00;;;;;;5075220;28;20024;-77
2021/07/02 12:01:23;;;;;;;13.80;8.73;;;20.10;82.20;;;;;;5074378;28;20480;-77
2021/07/02 12:04:00;;;;;;;12.93;8.23;;;20.20;82.10;;;;;;5073926;28;20142;-77
2021/07/02 12:06:29;;;;;;;13.02;8.00;;;20.20;82.00;;;;;;5074818;28;20032;-77
2021/07/02 12:09:17;;;;;;;12.50;7.97;;;20.30;82.00;;;;;;5074708;28;20522;-77
2021/07/02 12:11:57;;;;;;;13.90;8.30;;;20.40;82.00;;;;;;5070236;28;20016;-77
2021/07/02 12:14:24;;;;;;;13.77;8.18;;;20.50;82.00;;;;;;5071759;28;20032;-78
2021/07/02 12:16:51;;;;;;;12.65;7.93;;;20.60;81.90;;;;;;5055702;28;20029;-77
2021/07/02 12:19:19;;;;;;;11.80;7.65;;;20.70;81.50;;;;;;5052298;28;20044;-77
2021/07/02 12:22:00;;;;;;;11.02;7.05;;;20.80;81.30;;;;;;5054147;28;20491;-76
2021/07/02 12:24:33;;;;;;;13.13;8.23;;;20.90;81.00;;;;;;5053025;28;20028;-76
2021/07/02 12:27:09;;;;;;;14.98;8.30;;;21.00;80.80;;;;;;5054292;28;20094;-75
2021/07/02 12:29:35;;;;;;;12.73;7.32;;;21.10;80.70;;;;;;5053435;28;20032;-77
2021/07/02 12:32:09;;;;;;;12.38;7.93;;;21.10;80.50;;;;;;5036567;28;20021;-76
2021/07/02 12:34:35;;;;;;;13.60;8.07;;;21.10;80.20;;;;;;5054229;28;20017;-77
2021/07/02 12:37:05;;;;;;;16.42;9.80;;;21.20;80.20;;;;;;5054219;28;20395;-77
2021/07/02 12:39:35;;;;;;;14.48;8.93;;;21.20;79.90;;;;;;5053632;28;20024;-78
2021/07/02 12:42:17;;;;;;;14.68;9.70;;;21.20;79.50;;;;;;5052695;28;20090;-77
2021/07/02 12:44:48;;;;;;;15.15;10.95;;;21.10;79.60;;;;;;5052293;28;20017;-79